Stallion Springs, California
Current Conditions -  °F | °C
As of 12:35 AM on Sunday 23 Nov 2014 (Local Time) from KTSP Reporting Station
Overcast Overcast  
Wind Chill: 36°   Ceiling: 900
Heat Index: 45°   Visibility: 10mi
Dew Point: 45°   Wind: 24mph
Humidity: 100%   Direction: 300°WNW
Pressure: 30.16"   Gusts: 35mph
Location:  35.1338°N, 118.552°W
Report Text: KTSP 230835Z AUTO 30021G30KT 10SM FEW005 BKN009 OVC020 07/07 A3016 RMK AO2
Loading
Personal Weather Stations






























Interactive Weather Map New forecast layout! Learn more

10-Day Weather Forecast

Advertisements
Track Severe Weather on mobile